メインページ
METAR-TAF:

METAR-TAF

空港 :

ノヴォシビルスク, ロシア

トルマチョーヴォ空港

緯度: 55-01N, 経度: 082-38E, 海抜: 111m

現時点の気象観測

当レポートは19分前の05:30(UTC)に作成
西/北西の風 4kt、南/南西からの間で変化する
気温 17°C
湿度 59%
気圧 1021 hPa
視程10km以上
高度3300ftの雲は散在している

METAR: UNNT 200530Z 29002MPS 200V010 9999 SCT033 17/09 Q1021 R25/090070 R34/290160 NOSIG RMK QFE756/1008

時間: 12:49 (05:49 UTC)

予報

当レポートは49分前の05:00(UTC)に作成
予報は20日の 06時(UTC)から 21日の 06時(UTC)まで有効
西の風 6kt、最大16ktの突風を伴う
視程10km以上
高度2000ftの千切れ雲あり, 積乱雲.
20日の 21時(UTC)から 21日の 01時(UTC)まで一時的に
弱いにわか雨

TAF: UNNT 200500Z 2006/2106 27003G08MPS 9999 BKN020CB TEMPO 2021/2101 -SHRA

4,000以上の空港の気象観測と天気予報(METAR報とTAF報)

利用可能な観測所は地図上に黄色い丸と赤い丸で示す。

丸の上にカーソルを重ねると観測所名を参照できる。

次にクリックすると気象観測と天気予報を参照できる。

マップの切り替え:黒色「×」印の緑ボタンをクリックして拡大、「-」印の緑ボタンをクリックして縮小、緑色の三角印をクリックして隣りの地図に切り替え


METAR-TAF: